Time;durP1;ratioP1;P1;durP2;ratioP2;P2;SDS_P1;SDS_P2;PMS_P1;PMS_P2;Temp;Humidity;BMP_temperature;BMP_pressure;BME280_temperature;BME280_humidity;BME280_pressure;Samples;Min_cycle;Max_cycle;Signal;HPM_P1;HPM_P2
2022/05/14 00:01:37;;;;;;;9.27;2.30;;;14.10;99.90;;;;;;5046818;28;20462;-77
2022/05/14 00:04:06;;;;;;;4.23;3.27;;;14.20;99.90;;;;;;5043558;28;20482;-76
2022/05/14 00:06:32;;;;;;;18.23;3.10;;;14.20;99.90;;;;;;5032568;28;20526;-77
2022/05/14 00:09:05;;;;;;;5.63;2.80;;;14.20;99.90;;;;;;5033898;28;21029;-76
2022/05/14 00:14:16;;;;;;;8.03;3.70;;;14.20;99.90;;;;;;5035798;28;20502;-75
2022/05/14 00:16:43;;;;;;;6.90;2.80;;;14.10;99.90;;;;;;5033332;28;20693;-77
2022/05/14 00:19:12;;;;;;;4.80;2.60;;;14.20;99.90;;;;;;5033513;28;20455;-77
2022/05/14 00:21:39;;;;;;;3.80;2.57;;;14.20;99.90;;;;;;5031988;28;20443;-76
2022/05/14 00:24:13;;;;;;;5.30;3.07;;;14.10;99.90;;;;;;5040021;28;20907;-77
2022/05/14 00:26:41;;;;;;;5.30;2.70;;;14.20;99.90;;;;;;5038631;28;20454;-77
2022/05/14 00:29:13;;;;;;;5.20;3.00;;;14.10;99.90;;;;;;5037322;28;20460;-77
2022/05/14 00:31:41;;;;;;;11.37;2.60;;;14.00;99.90;;;;;;5033565;28;20461;-77
2022/05/14 00:34:08;;;;;;;5.30;2.27;;;13.90;99.90;;;;;;5032505;22;20514;-78
2022/05/14 00:36:35;;;;;;;3.33;1.83;;;13.90;99.90;;;;;;5015755;28;20440;-78
2022/05/14 00:39:02;;;;;;;8.00;2.93;;;14.00;99.90;;;;;;5015710;28;20604;-78
2022/05/14 00:41:31;;;;;;;3.70;2.50;;;13.90;99.90;;;;;;5015151;28;20445;-77
2022/05/14 00:43:59;;;;;;;6.00;2.90;;;13.90;99.90;;;;;;5005492;28;20482;-76
2022/05/14 00:46:33;;;;;;;10.27;2.87;;;13.80;99.90;;;;;;5014036;28;20465;-77
2022/05/14 00:49:01;;;;;;;4.13;2.50;;;13.70;99.90;;;;;;5010243;28;20469;-78
2022/05/14 00:51:29;;;;;;;12.70;3.07;;;13.60;99.90;;;;;;5011312;28;20462;-77
2022/05/14 00:54:00;;;;;;;3.63;2.27;;;13.40;99.90;;;;;;5010413;28;20496;-78
2022/05/14 00:56:31;;;;;;;7.53;2.23;;;13.40;99.90;;;;;;5022289;28;20843;-79
2022/05/14 00:59:03;;;;;;;2.77;2.47;;;13.40;99.90;;;;;;5009769;28;20453;-77
2022/05/14 01:01:31;;;;;;;6.17;2.30;;;13.40;99.90;;;;;;5009907;28;20956;-78
2022/05/14 01:03:57;;;;;;;3.50;2.57;;;13.40;99.90;;;;;;5011529;28;20475;-79
2022/05/14 01:06:25;;;;;;;8.33;3.30;;;13.30;99.90;;;;;;5014998;28;20433;-76
2022/05/14 01:08:52;;;;;;;9.83;3.33;;;13.20;99.90;;;;;;5029720;28;20447;-76
2022/05/14 01:11:20;;;;;;;8.37;2.30;;;13.20;99.90;;;;;;5029069;28;20455;-77
2022/05/14 01:13:46;;;;;;;23.50;3.27;;;13.10;99.90;;;;;;5018321;28;20498;-78
2022/05/14 01:16:14;;;;;;;2.87;2.17;;;13.10;99.90;;;;;;5004750;28;21074;-79
2022/05/14 01:18:41;;;;;;;11.37;2.93;;;13.20;99.90;;;;;;5007220;28;20507;-79
2022/05/14 01:21:14;;;;;;;7.60;3.00;;;13.20;99.90;;;;;;5010995;28;20565;-77
2022/05/14 01:26:37;;;;;;;5.83;3.00;;;13.10;99.90;;;;;;5015282;28;20466;-78
2022/05/14 01:29:06;;;;;;;2.90;2.37;;;13.10;99.90;;;;;;5010338;28;20989;-78
2022/05/14 01:31:33;;;;;;;4.83;2.40;;;13.10;99.90;;;;;;5010587;28;20541;-78
2022/05/14 01:34:03;;;;;;;5.60;2.90;;;13.00;99.90;;;;;;5011642;28;20521;-78
2022/05/14 01:36:29;;;;;;;8.70;2.80;;;13.00;99.90;;;;;;5008985;28;20548;-79
2022/05/14 01:38:56;;;;;;;7.33;2.90;;;12.80;99.90;;;;;;5013561;28;20888;-77
2022/05/14 01:41:23;;;;;;;6.37;2.93;;;12.70;99.90;;;;;;5014107;28;20475;-77
2022/05/14 01:43:52;;;;;;;8.00;2.80;;;12.70;99.90;;;;;;5037551;28;20475;-78
2022/05/14 01:46:19;;;;;;;3.00;2.37;;;12.60;99.90;;;;;;5030689;28;20446;-77
2022/05/14 01:48:47;;;;;;;6.40;2.87;;;12.60;99.90;;;;;;5027775;28;21401;-79
2022/05/14 01:51:14;;;;;;;4.90;2.27;;;12.40;99.90;;;;;;5014155;28;20566;-79
2022/05/14 01:53:41;;;;;;;5.03;2.40;;;12.40;99.90;;;;;;5014469;28;21025;-79
2022/05/14 01:56:08;;;;;;;3.70;2.73;;;12.40;99.90;;;;;;5021677;28;20474;-79
2022/05/14 01:58:37;;;;;;;4.90;3.07;;;12.50;99.90;;;;;;5010809;28;20575;-79
2022/05/14 02:01:10;;;;;;;2.67;2.47;;;12.50;99.90;;;;;;5011914;28;20441;-79
2022/05/14 02:03:38;;;;;;;7.30;3.70;;;12.60;99.90;;;;;;5008274;28;20456;-79
2022/05/14 02:06:05;;;;;;;10.10;2.73;;;12.50;99.90;;;;;;5016008;28;20661;-79
2022/05/14 02:08:32;;;;;;;4.83;3.27;;;12.50;99.90;;;;;;5002392;28;20479;-79
2022/05/14 02:10:59;;;;;;;12.73;5.60;;;12.60;99.90;;;;;;5016017;28;20461;-79
2022/05/14 02:13:26;;;;;;;5.97;3.13;;;12.60;99.90;;;;;;5014353;28;20456;-78
2022/05/14 02:15:53;;;;;;;8.00;3.50;;;12.70;99.90;;;;;;5011633;28;20441;-79
2022/05/14 02:18:22;;;;;;;20.37;5.17;;;12.70;99.90;;;;;;5010709;28;20817;-79
2022/05/14 02:20:49;;;;;;;5.27;3.80;;;12.70;99.90;;;;;;5015789;28;20596;-78
2022/05/14 02:23:15;;;;;;;6.47;3.80;;;12.80;99.90;;;;;;5021265;28;20482;-79
2022/05/14 02:25:43;;;;;;;5.80;4.63;;;12.90;99.90;;;;;;5016700;28;20493;-77
2022/05/14 02:28:10;;;;;;;7.03;6.17;;;12.90;99.90;;;;;;5003599;28;20464;-77
2022/05/14 02:30:37;;;;;;;8.03;4.93;;;12.90;99.90;;;;;;5010058;28;20448;-77
2022/05/14 02:33:04;;;;;;;5.30;3.07;;;12.90;99.90;;;;;;5009164;28;20497;-78
2022/05/14 02:35:32;;;;;;;6.93;4.17;;;12.90;99.90;;;;;;5014971;28;20468;-77
2022/05/14 02:37:59;;;;;;;4.70;3.97;;;13.00;99.90;;;;;;5002350;28;20461;-77
2022/05/14 02:40:26;;;;;;;9.87;3.30;;;12.90;99.90;;;;;;5009231;28;20801;-78
2022/05/14 02:42:53;;;;;;;6.80;3.70;;;12.90;99.90;;;;;;5003491;28;20477;-78
2022/05/14 02:45:20;;;;;;;6.13;3.80;;;13.00;99.90;;;;;;5012133;28;20471;-76
2022/05/14 02:47:47;;;;;;;6.53;4.97;;;12.90;99.90;;;;;;5014486;28;20484;-76
2022/05/14 02:50:14;;;;;;;4.67;3.20;;;12.90;99.90;;;;;;5014679;28;20465;-76
2022/05/14 02:52:42;;;;;;;7.73;4.23;;;12.80;99.90;;;;;;5011871;28;20980;-77
2022/05/14 02:55:10;;;;;;;14.93;5.03;;;12.80;99.90;;;;;;5010713;28;20427;-78
2022/05/14 02:57:36;;;;;;;6.13;3.53;;;12.80;99.90;;;;;;5010022;28;20545;-78
2022/05/14 03:00:06;;;;;;;6.07;3.77;;;12.80;99.90;;;;;;5010431;28;20463;-78
2022/05/14 03:02:32;;;;;;;3.73;3.10;;;12.80;99.90;;;;;;5020315;28;21042;-77
2022/05/14 03:05:01;;;;;;;7.40;4.10;;;12.80;99.90;;;;;;5009146;28;20465;-77
2022/05/14 03:07:28;;;;;;;8.70;4.10;;;12.80;99.90;;;;;;5014641;28;20637;-78
2022/05/14 03:09:56;;;;;;;7.50;4.13;;;12.60;99.90;;;;;;5005477;28;20434;-78
2022/05/14 03:12:24;;;;;;;10.90;6.00;;;12.60;99.90;;;;;;5015032;28;20463;-78
2022/05/14 03:14:50;;;;;;;9.53;5.03;;;12.60;99.90;;;;;;5013412;28;20486;-78
2022/05/14 03:17:18;;;;;;;9.53;4.60;;;12.70;99.90;;;;;;5019237;28;21766;-77
2022/05/14 03:19:45;;;;;;;5.80;3.90;;;12.70;99.90;;;;;;5014586;28;20469;-78
2022/05/14 03:22:12;;;;;;;6.17;4.97;;;12.70;99.90;;;;;;5009006;28;20521;-77
2022/05/14 03:24:39;;;;;;;6.20;4.00;;;12.80;99.90;;;;;;5017129;28;20458;-78
2022/05/14 03:27:07;;;;;;;6.93;4.40;;;12.70;99.90;;;;;;5013892;28;20539;-77
2022/05/14 03:29:35;;;;;;;9.83;6.10;;;12.70;99.90;;;;;;5025357;28;20461;-78
2022/05/14 03:32:01;;;;;;;10.73;5.20;;;12.70;99.90;;;;;;5011853;28;20572;-77
2022/05/14 03:34:29;;;;;;;15.33;7.13;;;12.80;99.90;;;;;;5019796;28;20499;-78
2022/05/14 03:36:55;;;;;;;8.27;4.87;;;12.80;99.90;;;;;;5018695;28;21060;-77
2022/05/14 03:39:22;;;;;;;10.40;5.30;;;12.70;99.90;;;;;;5018869;28;20460;-78
2022/05/14 03:41:49;;;;;;;8.50;4.80;;;12.70;99.90;;;;;;5014016;28;21010;-77
2022/05/14 03:44:17;;;;;;;8.23;4.97;;;12.70;99.90;;;;;;5026412;28;20573;-77
2022/05/14 03:46:44;;;;;;;8.13;4.70;;;12.80;99.90;;;;;;5013276;28;20448;-76
2022/05/14 03:49:11;;;;;;;7.47;5.90;;;12.90;99.90;;;;;;5017326;28;20464;-78
2022/05/14 03:51:38;;;;;;;13.77;5.37;;;12.80;99.90;;;;;;5017828;28;20955;-76
2022/05/14 03:54:05;;;;;;;10.20;5.10;;;12.80;99.90;;;;;;5016114;28;20492;-77
2022/05/14 03:56:32;;;;;;;20.37;6.10;;;12.80;99.90;;;;;;5020494;28;20888;-77
2022/05/14 03:59:00;;;;;;;8.87;5.57;;;12.60;99.90;;;;;;5019495;28;20614;-77
2022/05/14 04:01:28;;;;;;;7.07;4.77;;;12.70;99.90;;;;;;5022703;28;20601;-76
2022/05/14 04:03:54;;;;;;;5.43;4.47;;;12.80;99.90;;;;;;5008839;28;20855;-75
2022/05/14 04:06:21;;;;;;;9.30;5.20;;;12.80;99.90;;;;;;5019549;28;21358;-77
2022/05/14 04:08:48;;;;;;;10.63;5.43;;;12.70;99.90;;;;;;5012611;28;20496;-77
2022/05/14 04:11:14;;;;;;;7.73;5.17;;;12.70;99.90;;;;;;5017418;28;20786;-76
2022/05/14 04:13:41;;;;;;;6.13;4.00;;;12.80;99.90;;;;;;5019600;28;20473;-78
2022/05/14 04:16:08;;;;;;;9.13;5.50;;;12.70;99.90;;;;;;5022050;28;20750;-76
2022/05/14 04:18:37;;;;;;;9.13;4.10;;;12.70;99.90;;;;;;5016992;28;20460;-76
2022/05/14 04:21:05;;;;;;;4.90;3.70;;;12.70;99.90;;;;;;5013319;28;20469;-77
2022/05/14 04:23:32;;;;;;;6.37;4.47;;;12.80;99.90;;;;;;5019003;28;20478;-77
2022/05/14 04:26:00;;;;;;;3.70;3.40;;;12.90;99.90;;;;;;5022702;28;20454;-77
2022/05/14 04:28:28;;;;;;;6.57;3.93;;;12.90;99.90;;;;;;5016691;28;20990;-78
2022/05/14 04:30:55;;;;;;;5.37;3.20;;;13.00;99.90;;;;;;5018196;28;20562;-77
2022/05/14 04:33:24;;;;;;;6.10;3.70;;;13.10;99.90;;;;;;5023791;28;20487;-77
2022/05/14 04:35:52;;;;;;;5.77;5.00;;;13.00;99.90;;;;;;5021760;28;20578;-77
2022/05/14 04:38:19;;;;;;;2.90;2.60;;;13.10;99.90;;;;;;5014339;28;20455;-77
2022/05/14 04:40:45;;;;;;;4.13;3.20;;;13.20;99.90;;;;;;5022721;28;20835;-78
2022/05/14 04:43:13;;;;;;;5.70;3.33;;;13.20;99.90;;;;;;5019988;28;20486;-77
2022/05/14 04:45:41;;;;;;;9.70;4.43;;;13.30;99.90;;;;;;5017654;28;20440;-77
2022/05/14 04:48:09;;;;;;;11.73;3.50;;;13.30;99.90;;;;;;5021766;28;20468;-77
2022/05/14 04:50:36;;;;;;;8.30;3.90;;;13.20;99.90;;;;;;5020645;28;20471;-77
2022/05/14 04:53:04;;;;;;;5.73;3.97;;;13.30;99.90;;;;;;5025871;28;20539;-78
2022/05/14 04:55:31;;;;;;;3.70;2.50;;;13.30;99.90;;;;;;5015425;28;20915;-78
2022/05/14 04:57:59;;;;;;;7.60;2.73;;;13.40;99.90;;;;;;5023039;28;20893;-77
2022/05/14 05:00:26;;;;;;;5.57;3.03;;;13.40;99.90;;;;;;5020408;28;20462;-77
2022/05/14 05:05:38;;;;;;;7.87;2.63;;;13.70;99.90;;;;;;5007158;28;20428;-78
2022/05/14 05:08:06;;;;;;;2.83;2.63;;;13.80;99.90;;;;;;5027148;28;20459;-77
2022/05/14 05:10:34;;;;;;;7.73;3.90;;;13.90;99.90;;;;;;5023422;28;20468;-77
2022/05/14 05:13:00;;;;;;;11.63;3.53;;;13.90;99.90;;;;;;5022136;28;20735;-77
2022/05/14 05:15:27;;;;;;;6.20;2.77;;;13.90;99.90;;;;;;5020798;28;20494;-77
2022/05/14 05:17:54;;;;;;;7.57;3.47;;;14.20;99.90;;;;;;5024920;28;20565;-77
2022/05/14 05:20:22;;;;;;;6.83;3.47;;;14.40;99.90;;;;;;5017259;28;20565;-76
2022/05/14 05:22:49;;;;;;;5.03;3.30;;;14.50;99.90;;;;;;5019576;28;20594;-77
2022/05/14 05:25:18;;;;;;;2.87;2.57;;;14.50;99.90;;;;;;5018484;28;20611;-76
2022/05/14 05:27:44;;;;;;;9.90;2.63;;;14.70;99.90;;;;;;5022051;28;20470;-76
2022/05/14 05:30:12;;;;;;;3.53;2.63;;;15.00;99.90;;;;;;5016066;28;20463;-77
2022/05/14 05:32:39;;;;;;;5.93;3.97;;;15.10;99.90;;;;;;5024802;28;20486;-77
2022/05/14 05:35:06;;;;;;;9.63;4.53;;;15.10;99.90;;;;;;5026240;28;20485;-77
2022/05/14 05:37:33;;;;;;;5.27;3.07;;;15.40;99.90;;;;;;5018280;28;20515;-77
2022/05/14 05:40:00;;;;;;;5.07;3.17;;;15.60;99.90;;;;;;5022323;28;20570;-77
2022/05/14 05:42:28;;;;;;;2.77;2.57;;;15.80;99.90;;;;;;5024690;28;20530;-76
2022/05/14 05:44:55;;;;;;;6.77;3.23;;;15.60;99.90;;;;;;5022091;28;20464;-76
2022/05/14 05:47:22;;;;;;;7.87;3.10;;;15.60;99.90;;;;;;5012824;28;20466;-76
2022/05/14 05:49:49;;;;;;;4.97;2.90;;;15.90;99.90;;;;;;5025740;28;20478;-77
2022/05/14 05:52:16;;;;;;;7.33;3.13;;;15.80;99.90;;;;;;5022345;28;20460;-77
2022/05/14 05:57:33;;;;;;;5.90;2.60;;;16.10;99.90;;;;;;5019632;28;21034;-77
2022/05/14 06:00:00;;;;;;;3.67;2.80;;;16.30;99.90;;;;;;5010873;28;20475;-76
2022/05/14 06:02:27;;;;;;;14.53;3.00;;;16.80;99.90;;;;;;5026813;28;20482;-78
2022/05/14 06:04:54;;;;;;;7.60;3.50;;;17.00;99.90;;;;;;5029986;28;20466;-78
2022/05/14 06:07:20;;;;;;;9.60;3.83;;;16.60;99.90;;;;;;5019832;28;20467;-77
2022/05/14 06:09:48;;;;;;;4.53;2.17;;;16.60;99.90;;;;;;5023545;28;20520;-77
2022/05/14 06:12:15;;;;;;;4.90;3.40;;;16.50;99.90;;;;;;5023085;28;20545;-76
2022/05/14 06:14:43;;;;;;;9.13;3.17;;;16.40;99.90;;;;;;5024987;28;20881;-77
2022/05/14 06:17:10;;;;;;;2.77;2.50;;;16.50;99.90;;;;;;5026088;28;20852;-77
2022/05/14 06:19:36;;;;;;;7.00;3.20;;;16.50;99.90;;;;;;5023385;28;20459;-76
2022/05/14 06:22:04;;;;;;;6.90;3.50;;;16.50;99.90;;;;;;5024218;28;20462;-76
2022/05/14 06:24:31;;;;;;;5.87;2.73;;;16.90;99.90;;;;;;5025355;28;20552;-77
2022/05/14 06:26:58;;;;;;;5.37;2.60;;;17.10;99.90;;;;;;5017697;28;20466;-76
2022/05/14 06:29:24;;;;;;;3.30;2.57;;;17.50;99.90;;;;;;5032540;28;20455;-76
2022/05/14 06:31:52;;;;;;;5.17;2.70;;;17.30;99.90;;;;;;5036342;28;20463;-77
2022/05/14 06:34:22;;;;;;;11.50;4.73;;;17.30;99.90;;;;;;5043090;22;20500;-76
2022/05/14 06:36:50;;;;;;;4.40;3.00;;;17.50;99.90;;;;;;5014612;28;20461;-76
2022/05/14 06:39:17;;;;;;;6.60;2.63;;;17.70;99.90;;;;;;5014530;28;20462;-75
2022/05/14 06:41:43;;;;;;;4.67;3.07;;;18.00;99.90;;;;;;5022050;28;20475;-75
2022/05/14 06:44:10;;;;;;;6.70;2.67;;;18.30;99.90;;;;;;5020544;28;20479;-76
2022/05/14 06:46:37;;;;;;;4.80;2.60;;;18.80;99.90;;;;;;5009402;28;21793;-76
2022/05/14 06:49:05;;;;;;;4.47;3.10;;;19.20;99.90;;;;;;4998126;28;20464;-76
2022/05/14 06:51:34;;;;;;;7.37;3.90;;;19.40;99.90;;;;;;5010311;28;20905;-77
2022/05/14 06:54:08;;;;;;;3.87;2.37;;;19.70;99.90;;;;;;5016836;28;20577;-76
2022/05/14 06:56:41;;;;;;;4.93;2.63;;;19.80;99.90;;;;;;5012053;28;20463;-76
2022/05/14 06:59:12;;;;;;;6.40;3.27;;;19.70;99.90;;;;;;5007786;28;20979;-76
2022/05/14 07:01:44;;;;;;;5.43;2.63;;;20.10;99.90;;;;;;5016352;28;20462;-76
2022/05/14 07:07:01;;;;;;;5.87;3.13;;;20.90;99.90;;;;;;5005372;28;20899;-76
2022/05/14 07:09:29;;;;;;;7.40;3.07;;;20.70;99.90;;;;;;5014160;28;21545;-76
2022/05/14 07:11:59;;;;;;;5.33;3.20;;;21.00;99.90;;;;;;5013490;28;20456;-76
2022/05/14 07:14:27;;;;;;;4.83;2.73;;;21.70;99.90;;;;;;5013515;28;20491;-75
2022/05/14 07:16:54;;;;;;;3.10;2.53;;;21.80;99.90;;;;;;5012796;28;20471;-75
2022/05/14 07:19:24;;;;;;;9.10;3.80;;;21.60;99.90;;;;;;5012272;28;20563;-76
2022/05/14 07:21:53;;;;;;;4.90;3.07;;;21.80;99.90;;;;;;5008298;28;20463;-75
2022/05/14 07:24:21;;;;;;;5.80;2.27;;;21.90;99.90;;;;;;5016767;28;21008;-75
2022/05/14 07:26:50;;;;;;;9.90;4.03;;;22.40;99.90;;;;;;5020533;28;20459;-75
2022/05/14 07:29:19;;;;;;;6.93;2.47;;;22.60;99.90;;;;;;5019511;28;20846;-75
2022/05/14 07:31:46;;;;;;;5.17;3.50;;;22.60;99.90;;;;;;5019816;28;20489;-76
2022/05/14 07:34:13;;;;;;;11.23;3.10;;;22.40;99.90;;;;;;5019187;28;20546;-76
2022/05/14 07:36:46;;;;;;;4.23;2.00;;;22.30;99.90;;;;;;5019218;28;20496;-76
2022/05/14 07:39:14;;;;;;;6.30;3.40;;;21.30;99.90;;;;;;5022221;28;20462;-76
2022/05/14 07:41:43;;;;;;;8.30;5.73;;;21.60;99.90;;;;;;5023363;28;20557;-75
2022/05/14 07:44:12;;;;;;;8.13;3.70;;;22.30;99.90;;;;;;5015537;28;20981;-76
2022/05/14 07:46:39;;;;;;;7.60;4.70;;;22.60;99.90;;;;;;5016026;28;20471;-76
2022/05/14 07:49:10;;;;;;;6.50;2.60;;;22.90;99.90;;;;;;5016945;28;20920;-76
2022/05/14 07:51:38;;;;;;;7.57;2.60;;;22.30;99.90;;;;;;5013572;28;20520;-76
2022/05/14 07:54:07;;;;;;;11.07;4.07;;;22.00;99.90;;;;;;5026001;28;21034;-76
2022/05/14 07:56:34;;;;;;;10.90;4.50;;;22.20;99.90;;;;;;5009568;28;21193;-76
2022/05/14 07:59:01;;;;;;;6.83;3.30;;;22.70;99.90;;;;;;5012790;28;20459;-76
2022/05/14 08:01:28;;;;;;;3.73;2.77;;;23.40;99.90;;;;;;5016605;28;21212;-76
2022/05/14 08:03:55;;;;;;;9.50;3.50;;;23.20;99.90;;;;;;5016288;28;20484;-76
2022/05/14 08:06:24;;;;;;;5.67;3.57;;;22.90;99.90;;;;;;5019755;28;20465;-76
2022/05/14 08:08:53;;;;;;;9.00;4.13;;;23.60;99.90;;;;;;5018475;28;20457;-76
2022/05/14 08:11:21;;;;;;;5.57;3.63;;;24.20;99.90;;;;;;5018464;28;20837;-75
2022/05/14 08:13:48;;;;;;;7.93;3.00;;;23.90;99.90;;;;;;5016863;28;20543;-75
2022/05/14 08:16:15;;;;;;;10.50;4.27;;;24.50;99.90;;;;;;5020274;28;20487;-75
2022/05/14 08:18:42;;;;;;;7.23;4.40;;;23.90;99.90;;;;;;5011095;28;20518;-75
2022/05/14 08:26:38;;;;;;;9.50;3.70;;;25.50;99.30;;;;;;5012914;28;20650;-75
2022/05/14 08:29:05;;;;;;;4.77;2.70;;;24.70;99.90;;;;;;5020709;28;20955;-75
2022/05/14 08:31:32;;;;;;;9.73;3.93;;;24.90;99.90;;;;;;5008069;28;20527;-76
2022/05/14 08:34:00;;;;;;;9.40;4.10;;;25.00;99.70;;;;;;5013742;28;20488;-74
2022/05/14 08:36:26;;;;;;;3.40;2.60;;;23.90;99.90;;;;;;5005358;28;20498;-74
2022/05/14 08:38:54;;;;;;;5.77;3.20;;;24.50;99.40;;;;;;5006994;28;20518;-75
2022/05/14 08:41:21;;;;;;;18.20;5.90;;;25.10;98.70;;;;;;5003275;28;20655;-75
2022/05/14 08:43:53;;;;;;;7.80;3.43;;;25.40;98.00;;;;;;5003222;28;20883;-75
2022/05/14 08:46:23;;;;;;;8.23;4.07;;;24.90;98.60;;;;;;5013068;28;20899;-75
2022/05/14 08:48:51;;;;;;;8.37;3.93;;;25.50;98.10;;;;;;5000107;28;20675;-75
2022/05/14 08:51:22;;;;;;;5.90;3.67;;;25.80;96.90;;;;;;5006713;28;20529;-75
2022/05/14 08:53:51;;;;;;;7.57;2.97;;;24.30;99.20;;;;;;5011119;28;21348;-75
2022/05/14 08:56:29;;;;;;;9.20;3.37;;;25.60;98.90;;;;;;5010543;28;20483;-75
2022/05/14 08:59:20;;;;;;;7.20;4.00;;;26.70;95.80;;;;;;5005848;28;20482;-76
2022/05/14 09:01:48;;;;;;;6.17;3.80;;;26.90;94.80;;;;;;5003608;28;20558;-75
2022/05/14 09:04:24;;;;;;;6.33;4.07;;;27.30;93.40;;;;;;5009122;28;20532;-75
2022/05/14 09:06:51;;;;;;;14.30;4.83;;;27.00;92.90;;;;;;5015727;28;20461;-75
2022/05/14 09:09:19;;;;;;;5.60;3.57;;;27.00;92.50;;;;;;5009255;28;20833;-75
2022/05/14 09:11:51;;;;;;;16.97;4.67;;;26.80;93.00;;;;;;5003097;28;20591;-75
2022/05/14 09:14:27;;;;;;;6.40;3.57;;;26.10;93.80;;;;;;4996831;28;20836;-75
2022/05/14 09:17:04;;;;;;;6.20;3.50;;;26.60;93.20;;;;;;4991858;28;20482;-75
2022/05/14 09:19:37;;;;;;;7.47;4.20;;;27.30;93.50;;;;;;4997798;28;20972;-75
2022/05/14 09:22:12;;;;;;;9.93;4.00;;;27.70;91.70;;;;;;5014479;28;21145;-77
2022/05/14 09:24:44;;;;;;;12.00;4.07;;;27.90;90.00;;;;;;5016269;28;20494;-77
2022/05/14 09:27:14;;;;;;;6.63;3.37;;;28.60;88.50;;;;;;5010536;28;20519;-76
2022/05/14 09:29:46;;;;;;;8.30;3.43;;;29.10;90.00;;;;;;5013339;28;20805;-76
2022/05/14 09:32:30;;;;;;;7.63;3.97;;;28.80;87.20;;;;;;5009440;28;20457;-76
2022/05/14 09:35:19;;;;;;;7.07;3.50;;;28.80;84.40;;;;;;5019323;28;20993;-76
2022/05/14 09:37:46;;;;;;;6.60;3.77;;;28.50;87.80;;;;;;5009126;28;20471;-76
2022/05/14 09:40:20;;;;;;;12.97;3.80;;;29.00;84.20;;;;;;5014344;28;20517;-76
2022/05/14 09:42:49;;;;;;;8.47;3.30;;;29.30;82.40;;;;;;5015070;28;20470;-76
2022/05/14 09:45:29;;;;;;;4.13;3.23;;;29.50;82.40;;;;;;5014252;28;20487;-76
2022/05/14 09:47:57;;;;;;;7.77;4.07;;;29.00;83.20;;;;;;5015656;28;20460;-77
2022/05/14 09:50:30;;;;;;;7.53;3.20;;;29.40;80.80;;;;;;5012266;28;20471;-76
2022/05/14 09:53:01;;;;;;;4.30;3.13;;;29.10;78.40;;;;;;5018062;28;20538;-77
2022/05/14 09:55:55;;;;;;;5.97;3.40;;;29.70;79.70;;;;;;5015979;28;20483;-76
2022/05/14 09:58:30;;;;;;;10.97;3.47;;;29.60;76.30;;;;;;5023877;28;20469;-76
2022/05/14 10:01:04;;;;;;;6.33;3.47;;;29.70;78.10;;;;;;5009897;28;20921;-76
2022/05/14 10:03:43;;;;;;;11.27;4.47;;;30.50;77.10;;;;;;5013121;28;20483;-76
2022/05/14 10:06:24;;;;;;;16.13;4.00;;;30.20;73.60;;;;;;5015343;28;20448;-76
2022/05/14 10:09:07;;;;;;;5.80;3.17;;;29.80;74.60;;;;;;5012375;28;20470;-75
2022/05/14 10:11:35;;;;;;;5.90;3.03;;;29.60;72.50;;;;;;5014093;28;20877;-76
2022/05/14 10:14:15;;;;;;;5.40;2.60;;;29.80;74.00;;;;;;5013526;28;20495;-76
2022/05/14 10:16:54;;;;;;;8.00;3.73;;;30.20;71.80;;;;;;5012396;28;20888;-76
2022/05/14 10:19:36;;;;;;;5.40;2.73;;;29.70;69.90;;;;;;5017342;28;20463;-76
2022/05/14 10:22:12;;;;;;;6.13;2.57;;;29.90;69.40;;;;;;4996984;28;20460;-75
2022/05/14 10:27:50;;;;;;;8.90;3.40;;;27.90;73.00;;;;;;5008376;28;20490;-77
2022/05/14 10:30:22;;;;;;;5.03;3.10;;;29.30;73.10;;;;;;5004902;28;20468;-75
2022/05/14 10:32:57;;;;;;;5.03;2.90;;;28.30;71.30;;;;;;5010360;28;20933;-74
2022/05/14 10:35:29;;;;;;;6.90;3.13;;;26.40;76.00;;;;;;5015788;28;20634;-75
2022/05/14 10:38:00;;;;;;;5.10;3.13;;;26.90;78.50;;;;;;5016259;28;20471;-74
2022/05/14 10:40:34;;;;;;;5.07;2.87;;;27.70;77.80;;;;;;5005739;28;20980;-75
2022/05/14 10:43:29;;;;;;;13.27;3.03;;;27.70;75.80;;;;;;5018560;28;20550;-75
2022/05/14 10:45:57;;;;;;;5.77;3.33;;;27.40;76.00;;;;;;5007423;28;20871;-76
2022/05/14 10:48:42;;;;;;;15.23;3.73;;;28.00;76.20;;;;;;5008950;28;20478;-75
2022/05/14 10:51:12;;;;;;;6.40;2.83;;;29.20;71.80;;;;;;5013292;28;20470;-76
2022/05/14 10:53:41;;;;;;;5.20;3.37;;;29.40;70.20;;;;;;5008221;28;20514;-77
2022/05/14 10:56:13;;;;;;;6.03;3.53;;;28.70;73.30;;;;;;5011541;28;20565;-76
2022/05/14 10:58:45;;;;;;;6.90;4.00;;;27.20;72.80;;;;;;5016231;28;20472;-76
2022/05/14 11:01:27;;;;;;;5.90;3.47;;;26.90;76.80;;;;;;5021159;28;20475;-76
2022/05/14 11:03:58;;;;;;;11.43;3.33;;;27.40;77.70;;;;;;5015562;28;20482;-77
2022/05/14 11:06:39;;;;;;;7.20;3.90;;;28.00;73.70;;;;;;5012757;28;20558;-76
2022/05/14 11:09:17;;;;;;;7.63;3.83;;;28.60;73.80;;;;;;5002266;28;20926;-77
2022/05/14 11:11:49;;;;;;;6.70;3.20;;;29.70;70.20;;;;;;5017260;28;20471;-77
2022/05/14 11:14:16;;;;;;;7.40;3.87;;;30.80;67.30;;;;;;5022665;28;20480;-76
2022/05/14 11:16:46;;;;;;;11.80;3.63;;;31.00;66.00;;;;;;5022531;28;20569;-75
2022/05/14 11:19:27;;;;;;;3.77;3.37;;;31.70;62.30;;;;;;5018522;28;20991;-75
2022/05/14 11:21:55;;;;;;;10.67;6.90;;;30.70;61.40;;;;;;5020097;28;20468;-76
2022/05/14 11:24:33;;;;;;;6.80;4.47;;;29.40;64.00;;;;;;5018016;28;20503;-76
2022/05/14 11:27:00;;;;;;;6.23;4.50;;;28.80;66.20;;;;;;5016429;28;20463;-75
2022/05/14 11:29:30;;;;;;;8.40;4.60;;;28.40;66.40;;;;;;5014279;28;20463;-75
2022/05/14 11:32:04;;;;;;;12.23;4.63;;;28.70;67.70;;;;;;5021016;28;20541;-76
2022/05/14 11:34:33;;;;;;;4.83;3.60;;;29.70;64.50;;;;;;5023012;28;20499;-76
2022/05/14 11:37:02;;;;;;;8.83;4.43;;;29.10;64.90;;;;;;5013079;28;20548;-76
2022/05/14 11:39:35;;;;;;;6.73;4.50;;;28.50;66.10;;;;;;5014995;28;20853;-76
2022/05/14 11:42:13;;;;;;;7.43;4.10;;;28.00;66.20;;;;;;5017426;28;20467;-75
2022/05/14 11:44:46;;;;;;;5.53;3.80;;;28.80;66.30;;;;;;5018138;28;20665;-76
2022/05/14 11:47:42;;;;;;;4.83;4.13;;;29.20;64.40;;;;;;5021370;28;20559;-76
2022/05/14 11:50:13;;;;;;;5.93;4.20;;;28.50;63.20;;;;;;5022653;28;20471;-75
2022/05/14 11:52:49;;;;;;;6.07;5.20;;;28.90;62.70;;;;;;5025169;28;20744;-76
2022/05/14 11:55:20;;;;;;;12.00;7.03;;;29.10;62.70;;;;;;5014447;28;20476;-76
2022/05/14 11:57:52;;;;;;;10.03;4.20;;;30.10;61.80;;;;;;5020033;28;21014;-76
2022/05/14 12:00:25;;;;;;;6.47;4.63;;;30.40;62.20;;;;;;5015639;28;21447;-76
2022/05/14 12:02:55;;;;;;;8.07;4.60;;;30.80;59.90;;;;;;5010540;28;20468;-75
2022/05/14 12:05:29;;;;;;;7.90;4.60;;;29.60;62.90;;;;;;5019370;28;20471;-75
2022/05/14 12:08:14;;;;;;;6.77;5.00;;;27.80;67.60;;;;;;5020547;28;20467;-75
2022/05/14 12:10:52;;;;;;;11.30;5.00;;;27.30;69.70;;;;;;5018349;28;20992;-76
2022/05/14 12:13:27;;;;;;;7.03;5.17;;;28.90;66.70;;;;;;5021972;28;20495;-76
2022/05/14 12:15:57;;;;;;;7.37;6.20;;;30.20;64.90;;;;;;5016413;28;20541;-76
2022/05/14 12:18:24;;;;;;;10.70;4.60;;;31.00;61.20;;;;;;5019409;28;20855;-76
2022/05/14 12:20:57;;;;;;;9.90;4.90;;;30.90;59.70;;;;;;5022219;28;20962;-76
2022/05/14 12:23:47;;;;;;;8.90;5.87;;;29.90;60.30;;;;;;5025832;28;20874;-76
2022/05/14 12:26:25;;;;;;;7.33;5.20;;;30.40;59.60;;;;;;5020732;28;21069;-77
2022/05/14 12:28:58;;;;;;;7.43;4.90;;;29.90;62.10;;;;;;5023815;28;20712;-76
2022/05/14 12:34:17;;;;;;;14.60;4.50;;;29.40;61.10;;;;;;5038812;23;20516;-77
2022/05/14 12:36:47;;;;;;;6.70;4.67;;;28.80;60.30;;;;;;5040729;28;20493;-76
2022/05/14 12:39:16;;;;;;;5.03;3.77;;;28.70;64.20;;;;;;5053822;28;20462;-77
2022/05/14 12:41:48;;;;;;;7.97;3.57;;;29.30;61.40;;;;;;5062471;28;20465;-77
2022/05/14 12:44:23;;;;;;;6.10;4.03;;;30.70;59.90;;;;;;5062150;28;20477;-77
2022/05/14 12:46:54;;;;;;;11.43;5.00;;;32.00;58.40;;;;;;5057763;28;21021;-78
2022/05/14 12:49:23;;;;;;;4.40;4.00;;;32.20;57.60;;;;;;5052954;28;20879;-77
2022/05/14 12:51:57;;;;;;;4.03;2.53;;;32.10;58.50;;;;;;5054872;28;20467;-76
2022/05/14 12:54:26;;;;;;;11.10;3.50;;;31.60;57.10;;;;;;5054183;28;20486;-75
2022/05/14 12:56:56;;;;;;;9.60;2.70;;;31.10;56.90;;;;;;5062359;28;20485;-78
2022/05/14 12:59:23;;;;;;;14.93;3.70;;;31.00;56.70;;;;;;5058107;28;20515;-77
2022/05/14 13:01:51;;;;;;;6.30;2.80;;;30.60;55.30;;;;;;5054191;28;20467;-77
2022/05/14 13:04:20;;;;;;;4.80;2.53;;;29.90;55.50;;;;;;5055216;28;21443;-76
2022/05/14 13:06:50;;;;;;;10.70;3.80;;;30.30;55.10;;;;;;5057942;28;20462;-77
2022/05/14 13:09:25;;;;;;;5.83;3.10;;;28.90;56.80;;;;;;5052102;28;20471;-76
2022/05/14 13:11:56;;;;;;;2.50;2.27;;;28.80;58.20;;;;;;5050324;28;20956;-77
2022/05/14 13:14:28;;;;;;;5.27;2.43;;;29.00;58.00;;;;;;5057544;28;20517;-77
2022/05/14 13:17:00;;;;;;;5.57;2.63;;;29.90;57.40;;;;;;5054414;28;20491;-77
2022/05/14 13:19:37;;;;;;;5.70;2.87;;;31.00;56.00;;;;;;5051671;28;20466;-76
2022/05/14 13:22:14;;;;;;;14.23;3.10;;;32.00;54.10;;;;;;5054244;28;20485;-77
2022/05/14 13:24:52;;;;;;;10.13;3.07;;;31.80;54.40;;;;;;5046976;28;20481;-77